Time;durP1;ratioP1;P1;durP2;ratioP2;P2;SDS_P1;SDS_P2;PMS_P1;PMS_P2;Temp;Humidity;BMP_temperature;BMP_pressure;BME280_temperature;BME280_humidity;BME280_pressure;Samples;Min_cycle;Max_cycle;Signal;HPM_P1;HPM_P2
2022/11/05 00:09:31;;;;;;;23.30;19.83;;;6.00;99.90;;;;;;4977838;28;20978;-69
2022/11/05 00:17:33;;;;;;;22.20;18.97;;;6.10;99.90;;;;;;5047204;28;20483;-69
2022/11/05 00:20:00;;;;;;;24.17;18.70;;;6.10;99.90;;;;;;5043942;28;20543;-70
2022/11/05 00:25:15;;;;;;;22.17;18.60;;;6.20;99.90;;;;;;5044707;28;20459;-70
2022/11/05 00:27:43;;;;;;;24.13;20.33;;;6.30;99.90;;;;;;5043569;28;20865;-69
2022/11/05 00:30:11;;;;;;;21.67;19.57;;;6.30;99.90;;;;;;5045941;28;20912;-68
2022/11/05 00:32:38;;;;;;;23.20;18.67;;;6.30;99.90;;;;;;5045314;28;21152;-70
2022/11/05 00:35:06;;;;;;;21.07;18.20;;;6.30;99.90;;;;;;5047608;28;20492;-69
2022/11/05 00:37:33;;;;;;;23.10;19.13;;;6.20;99.90;;;;;;5048607;28;20514;-69
2022/11/05 00:40:00;;;;;;;19.67;17.77;;;6.30;99.90;;;;;;5046619;28;20591;-70
2022/11/05 00:45:21;;;;;;;20.73;18.47;;;6.30;99.90;;;;;;5008486;28;21039;-69
2022/11/05 00:50:33;;;;;;;21.13;18.03;;;6.20;99.90;;;;;;5042607;28;20490;-69
2022/11/05 00:53:00;;;;;;;21.33;19.13;;;6.10;99.90;;;;;;5052490;28;20460;-70
2022/11/05 00:55:32;;;;;;;21.17;19.07;;;6.00;99.90;;;;;;5044349;28;20465;-67
2022/11/05 00:58:02;;;;;;;21.23;19.23;;;6.00;99.90;;;;;;5045066;28;20587;-68
2022/11/05 01:00:31;;;;;;;23.83;19.03;;;5.90;99.90;;;;;;5046281;28;20557;-67
2022/11/05 01:02:59;;;;;;;22.73;19.50;;;5.90;99.90;;;;;;5042236;28;20472;-67
2022/11/05 01:05:27;;;;;;;24.03;19.90;;;5.90;99.90;;;;;;5046202;28;20467;-67
2022/11/05 01:07:54;;;;;;;23.17;19.40;;;5.80;99.90;;;;;;5044189;28;20455;-67
2022/11/05 01:10:21;;;;;;;22.20;20.03;;;5.70;99.90;;;;;;5046004;28;20874;-66
2022/11/05 01:12:48;;;;;;;21.87;19.63;;;5.70;99.90;;;;;;5046175;28;20483;-67
2022/11/05 01:15:17;;;;;;;25.93;20.97;;;5.60;99.90;;;;;;5043703;28;21045;-67
2022/11/05 01:17:44;;;;;;;23.43;20.20;;;5.60;99.90;;;;;;5042847;28;20479;-68
2022/11/05 01:20:12;;;;;;;27.93;20.33;;;5.60;99.90;;;;;;5040449;28;20978;-69
2022/11/05 01:22:38;;;;;;;21.83;19.77;;;5.60;99.90;;;;;;5043254;28;20843;-68
2022/11/05 01:25:07;;;;;;;22.83;20.47;;;5.50;99.90;;;;;;5046506;28;20467;-68
2022/11/05 01:27:36;;;;;;;25.87;21.57;;;5.40;99.90;;;;;;5044405;28;21052;-67
2022/11/05 01:30:04;;;;;;;22.27;19.97;;;5.40;99.90;;;;;;5045483;28;20464;-66
2022/11/05 01:32:33;;;;;;;23.47;20.43;;;5.30;99.90;;;;;;5048384;28;20464;-69
2022/11/05 01:35:00;;;;;;;22.60;20.30;;;5.30;99.90;;;;;;5045508;28;20476;-69
2022/11/05 01:37:27;;;;;;;21.83;19.40;;;5.20;99.90;;;;;;5042935;28;20484;-70
2022/11/05 01:39:54;;;;;;;22.00;19.93;;;5.20;99.90;;;;;;5043970;28;20471;-70
2022/11/05 01:42:23;;;;;;;22.73;20.40;;;5.10;99.90;;;;;;5044111;28;20469;-69
2022/11/05 01:44:54;;;;;;;27.03;20.33;;;5.20;99.90;;;;;;5040283;28;20468;-68
2022/11/05 01:47:29;;;;;;;28.93;21.20;;;5.20;99.90;;;;;;5045194;28;20468;-70
2022/11/05 01:50:00;;;;;;;26.50;21.13;;;5.20;99.90;;;;;;5041525;28;20464;-70
2022/11/05 01:52:29;;;;;;;26.40;21.10;;;5.10;99.90;;;;;;5043882;28;20464;-70
2022/11/05 01:54:56;;;;;;;21.20;19.20;;;5.10;99.90;;;;;;5043841;28;20464;-69
2022/11/05 01:57:23;;;;;;;22.60;20.30;;;5.10;99.90;;;;;;5043253;28;20492;-71
2022/11/05 01:59:53;;;;;;;21.03;18.90;;;5.20;99.90;;;;;;5043367;28;20456;-68
2022/11/05 02:02:22;;;;;;;19.57;17.53;;;5.30;99.90;;;;;;5042684;28;20491;-69
2022/11/05 02:04:54;;;;;;;18.97;17.30;;;5.40;99.90;;;;;;5044389;28;20471;-70
2022/11/05 02:07:24;;;;;;;17.73;16.20;;;5.40;99.90;;;;;;5043347;28;21044;-67
2022/11/05 02:09:56;;;;;;;21.03;17.83;;;5.40;99.90;;;;;;5043458;28;20461;-68
2022/11/05 02:12:23;;;;;;;18.27;16.77;;;5.50;99.90;;;;;;5042256;28;20558;-69
2022/11/05 02:14:50;;;;;;;22.10;17.50;;;5.40;99.90;;;;;;5043188;28;20555;-67
2022/11/05 02:17:26;;;;;;;17.87;16.00;;;5.30;99.90;;;;;;5043771;28;20576;-69
2022/11/05 02:20:18;;;;;;;16.80;15.30;;;5.30;99.90;;;;;;5040339;28;20476;-68
2022/11/05 02:23:10;;;;;;;17.10;15.30;;;5.30;99.90;;;;;;5042019;28;20468;-68
2022/11/05 02:26:10;;;;;;;16.90;15.37;;;5.30;99.90;;;;;;5044965;28;20460;-67
2022/11/05 02:29:13;;;;;;;18.00;16.20;;;5.20;99.90;;;;;;5045746;28;20503;-68
2022/11/05 02:31:47;;;;;;;17.10;15.60;;;5.30;99.90;;;;;;5037995;28;20489;-66
2022/11/05 02:34:25;;;;;;;15.60;14.23;;;5.30;99.90;;;;;;5042669;28;20482;-67
2022/11/05 02:36:59;;;;;;;14.97;13.57;;;5.40;99.90;;;;;;5045554;28;20460;-68
2022/11/05 02:39:37;;;;;;;14.73;13.30;;;5.50;99.90;;;;;;5038113;28;20866;-70
2022/11/05 02:42:15;;;;;;;14.50;13.33;;;5.60;99.90;;;;;;5044516;28;20469;-67
2022/11/05 02:44:51;;;;;;;14.37;13.00;;;5.80;99.90;;;;;;5037559;28;20464;-68
2022/11/05 02:47:25;;;;;;;15.77;14.57;;;5.90;99.90;;;;;;5044660;28;20841;-68
2022/11/05 02:49:58;;;;;;;17.33;15.80;;;5.90;99.90;;;;;;5039444;28;20456;-68
2022/11/05 02:52:32;;;;;;;22.27;16.90;;;6.00;99.90;;;;;;5044545;28;20461;-67
2022/11/05 02:55:07;;;;;;;18.57;16.80;;;6.00;99.90;;;;;;5043604;28;20905;-67
2022/11/05 02:57:35;;;;;;;19.10;17.10;;;5.90;99.90;;;;;;5044704;28;20503;-67
2022/11/05 03:00:04;;;;;;;18.20;16.17;;;6.00;99.90;;;;;;5044385;28;20459;-67
2022/11/05 03:02:33;;;;;;;20.80;17.33;;;5.90;99.90;;;;;;5039351;28;20499;-67
2022/11/05 03:05:00;;;;;;;25.10;18.90;;;5.90;99.90;;;;;;5039985;28;20456;-67
2022/11/05 03:07:44;;;;;;;27.73;17.40;;;5.90;99.90;;;;;;5045521;28;20473;-68
2022/11/05 03:10:27;;;;;;;21.63;19.30;;;5.90;99.90;;;;;;5044605;28;21167;-68
2022/11/05 03:13:06;;;;;;;20.00;17.90;;;5.80;99.90;;;;;;5044987;28;20456;-68
2022/11/05 03:15:46;;;;;;;19.60;17.60;;;5.80;99.90;;;;;;5042727;28;20559;-67
2022/11/05 03:18:20;;;;;;;21.77;18.73;;;5.80;99.90;;;;;;5045574;28;20966;-68
2022/11/05 03:20:52;;;;;;;22.50;19.80;;;5.70;99.90;;;;;;5044824;28;20456;-68
2022/11/05 03:23:25;;;;;;;29.30;20.13;;;5.70;99.90;;;;;;5044736;28;20483;-69
2022/11/05 03:26:01;;;;;;;21.03;18.93;;;5.60;99.90;;;;;;5044139;28;20526;-68
2022/11/05 03:28:33;;;;;;;24.23;19.23;;;5.60;99.90;;;;;;5036985;28;20495;-67
2022/11/05 03:31:04;;;;;;;22.20;19.97;;;5.50;99.90;;;;;;5042428;28;20971;-69
2022/11/05 03:33:37;;;;;;;21.83;19.77;;;5.50;99.90;;;;;;5039604;28;21041;-68
2022/11/05 03:36:09;;;;;;;23.37;20.20;;;5.50;99.90;;;;;;5045563;28;20496;-69
2022/11/05 03:38:41;;;;;;;24.60;20.73;;;5.40;99.90;;;;;;5044792;28;20492;-67
2022/11/05 03:41:12;;;;;;;24.00;20.60;;;5.40;99.90;;;;;;5048074;28;20461;-67
2022/11/05 03:43:45;;;;;;;23.37;21.10;;;5.40;99.90;;;;;;5048549;28;20456;-68
2022/11/05 03:46:15;;;;;;;24.33;21.90;;;5.30;99.90;;;;;;5039637;28;20966;-68
2022/11/05 03:48:48;;;;;;;26.20;21.33;;;5.30;99.90;;;;;;5047500;28;20464;-68
2022/11/05 03:51:23;;;;;;;27.77;21.67;;;5.20;99.90;;;;;;5049605;28;20572;-68
2022/11/05 03:53:54;;;;;;;25.73;23.03;;;5.20;99.90;;;;;;5049393;28;20460;-67
2022/11/05 03:56:27;;;;;;;24.87;22.40;;;5.10;99.90;;;;;;5047698;28;20479;-67
2022/11/05 03:58:56;;;;;;;29.30;24.53;;;5.10;99.90;;;;;;5047555;28;20483;-67
2022/11/05 04:01:23;;;;;;;25.17;22.73;;;5.00;99.90;;;;;;5040234;28;20459;-66
2022/11/05 04:03:51;;;;;;;31.70;23.70;;;5.00;99.90;;;;;;5048762;28;20494;-68
2022/11/05 04:14:31;;;;;;;29.50;24.97;;;4.70;99.90;;;;;;5043848;28;20901;-67
2022/11/05 04:17:08;;;;;;;36.73;26.77;;;4.70;99.90;;;;;;5047167;28;20468;-68
2022/11/05 04:25:07;;;;;;;31.37;25.73;;;4.80;99.90;;;;;;5049463;28;20810;-67
2022/11/05 04:27:34;;;;;;;33.33;27.83;;;4.90;99.90;;;;;;5048052;28;20468;-66
2022/11/05 04:30:18;;;;;;;35.20;26.63;;;4.90;99.90;;;;;;5046150;28;20804;-67
2022/11/05 04:33:00;;;;;;;27.93;25.23;;;4.90;99.90;;;;;;5039730;28;20465;-66
2022/11/05 04:35:30;;;;;;;29.80;26.80;;;4.80;99.90;;;;;;5044598;28;21110;-67
2022/11/05 04:37:57;;;;;;;31.57;27.93;;;4.80;99.90;;;;;;5046296;28;20835;-68
2022/11/05 04:40:24;;;;;;;30.40;26.63;;;4.90;99.90;;;;;;5046568;28;20460;-67
2022/11/05 04:42:53;;;;;;;30.43;27.23;;;5.00;99.90;;;;;;5045622;28;20525;-68
2022/11/05 04:45:20;;;;;;;31.30;27.90;;;4.90;99.90;;;;;;5040915;28;20482;-65
2022/11/05 04:47:47;;;;;;;32.87;28.23;;;4.90;99.90;;;;;;5044628;28;20466;-67
2022/11/05 04:50:14;;;;;;;30.60;27.30;;;4.80;99.90;;;;;;5042733;28;20849;-67
2022/11/05 04:52:43;;;;;;;35.93;28.27;;;4.80;99.90;;;;;;5047404;28;20835;-68
2022/11/05 04:55:10;;;;;;;34.90;26.87;;;4.80;99.90;;;;;;5043124;28;20468;-68
2022/11/05 04:57:37;;;;;;;30.70;26.93;;;4.70;99.90;;;;;;5043636;28;20827;-67
2022/11/05 05:00:05;;;;;;;36.73;28.77;;;4.80;99.90;;;;;;5046350;28;20492;-66
2022/11/05 05:02:33;;;;;;;31.77;27.07;;;4.80;99.90;;;;;;5034955;28;20468;-68
2022/11/05 05:05:00;;;;;;;31.90;26.73;;;4.80;99.90;;;;;;5045673;28;20673;-67
2022/11/05 05:07:27;;;;;;;29.73;26.73;;;4.70;99.90;;;;;;5046208;28;20529;-67
2022/11/05 05:09:55;;;;;;;34.53;27.63;;;4.80;99.90;;;;;;5045511;28;20559;-66
2022/11/05 05:12:23;;;;;;;32.13;28.27;;;4.80;99.90;;;;;;5043472;28;20463;-66
2022/11/05 05:14:49;;;;;;;33.10;27.43;;;4.70;99.90;;;;;;5043476;28;20839;-68
2022/11/05 05:17:16;;;;;;;32.00;27.90;;;4.70;99.90;;;;;;5041459;28;20464;-66
2022/11/05 05:22:27;;;;;;;28.70;25.90;;;4.70;99.90;;;;;;5044999;28;20939;-68
2022/11/05 05:24:58;;;;;;;29.07;26.10;;;4.50;99.90;;;;;;5045816;28;20554;-68
2022/11/05 05:27:28;;;;;;;28.60;25.70;;;4.50;99.90;;;;;;5043266;28;20465;-67
2022/11/05 05:29:55;;;;;;;30.60;27.40;;;4.40;99.90;;;;;;5042433;28;20462;-66
2022/11/05 05:32:23;;;;;;;27.07;23.77;;;4.40;99.90;;;;;;5042255;28;20558;-67
2022/11/05 05:34:49;;;;;;;29.43;25.33;;;4.50;99.90;;;;;;5046875;28;20484;-68
2022/11/05 05:37:18;;;;;;;34.23;25.00;;;4.50;99.90;;;;;;5045382;28;20877;-67
2022/11/05 05:39:46;;;;;;;28.80;25.73;;;4.50;99.90;;;;;;5041256;28;21127;-68
2022/11/05 05:42:15;;;;;;;33.40;27.27;;;4.60;99.90;;;;;;5042100;28;21140;-67
2022/11/05 05:44:43;;;;;;;26.20;22.73;;;4.80;99.90;;;;;;5043591;28;20646;-68
2022/11/05 05:47:09;;;;;;;36.57;22.50;;;4.80;99.90;;;;;;5040779;28;20476;-66
2022/11/05 05:49:36;;;;;;;26.57;23.97;;;4.80;99.90;;;;;;5042523;28;20464;-68
2022/11/05 05:52:04;;;;;;;24.20;21.90;;;4.90;99.90;;;;;;5046758;28;20461;-68
2022/11/05 05:54:31;;;;;;;32.50;24.40;;;5.00;99.90;;;;;;5042476;28;20465;-67
2022/11/05 05:56:58;;;;;;;29.10;23.60;;;4.90;99.90;;;;;;5043826;28;20486;-67
2022/11/05 05:59:26;;;;;;;25.20;22.70;;;4.90;99.90;;;;;;5044035;28;20514;-68
2022/11/05 06:01:54;;;;;;;24.50;22.20;;;4.90;99.90;;;;;;5044020;28;20866;-68
2022/11/05 06:04:21;;;;;;;25.60;23.10;;;4.90;99.90;;;;;;5044636;28;20468;-68
2022/11/05 06:06:48;;;;;;;26.43;23.60;;;4.90;99.90;;;;;;5046334;28;20456;-67
2022/11/05 06:09:16;;;;;;;23.70;21.30;;;5.00;99.90;;;;;;5040665;28;20854;-66
2022/11/05 06:11:43;;;;;;;24.33;21.87;;;5.00;99.90;;;;;;5042999;28;20543;-67
2022/11/05 06:14:12;;;;;;;26.03;23.40;;;5.00;99.90;;;;;;5042386;28;20478;-68
2022/11/05 06:16:41;;;;;;;22.87;20.83;;;5.00;99.90;;;;;;5046869;28;20487;-69
2022/11/05 06:19:08;;;;;;;24.33;20.20;;;5.10;99.90;;;;;;5045172;28;20554;-68
2022/11/05 06:21:36;;;;;;;23.17;20.77;;;5.10;99.90;;;;;;5046303;28;20530;-68
2022/11/05 06:24:03;;;;;;;25.80;19.77;;;5.10;99.90;;;;;;5044600;28;20479;-67
2022/11/05 06:26:30;;;;;;;28.23;22.30;;;5.10;99.90;;;;;;5044672;28;20475;-67
2022/11/05 06:28:57;;;;;;;22.20;20.20;;;5.00;99.90;;;;;;5043555;28;20616;-67
2022/11/05 06:31:24;;;;;;;23.63;21.47;;;5.00;99.90;;;;;;5042457;28;20460;-67
2022/11/05 06:33:52;;;;;;;23.37;21.20;;;4.90;99.90;;;;;;5046097;28;20568;-69
2022/11/05 06:36:20;;;;;;;21.70;19.60;;;4.80;99.90;;;;;;5043440;28;20740;-66
2022/11/05 06:38:48;;;;;;;25.13;20.33;;;4.60;99.90;;;;;;5043437;28;20487;-68
2022/11/05 06:41:15;;;;;;;21.80;19.57;;;4.70;99.90;;;;;;5042172;28;21081;-69
2022/11/05 06:43:42;;;;;;;19.70;17.80;;;4.70;99.90;;;;;;5042314;28;20467;-67
2022/11/05 06:46:10;;;;;;;20.43;18.47;;;4.60;99.90;;;;;;5043241;28;21159;-67
2022/11/05 06:48:37;;;;;;;11.60;11.20;;;4.60;99.90;;;;;;5039040;28;20474;-67
2022/11/05 06:51:06;;;;;;;11.77;11.37;;;4.60;99.90;;;;;;5045366;28;20457;-68
2022/11/05 06:53:33;;;;;;;12.50;12.00;;;4.70;99.90;;;;;;5044074;28;20468;-68
2022/11/05 06:56:03;;;;;;;12.30;11.80;;;4.70;99.90;;;;;;5043133;28;20464;-68
2022/11/05 06:58:31;;;;;;;11.87;11.47;;;4.80;99.90;;;;;;5041432;28;20821;-67
2022/11/05 07:01:00;;;;;;;12.27;11.77;;;4.90;99.90;;;;;;5040717;28;20455;-68
2022/11/05 07:03:27;;;;;;;11.10;10.70;;;4.90;99.90;;;;;;5042343;28;20925;-66
2022/11/05 07:05:54;;;;;;;11.67;11.27;;;5.00;99.90;;;;;;5044127;28;21085;-68
2022/11/05 07:08:23;;;;;;;10.83;10.43;;;5.00;99.90;;;;;;5043505;28;20468;-66
2022/11/05 07:10:50;;;;;;;10.90;10.50;;;5.20;99.90;;;;;;5039917;28;20717;-66
2022/11/05 07:13:17;;;;;;;10.87;10.47;;;5.20;99.90;;;;;;5044016;28;20460;-65
2022/11/05 07:15:44;;;;;;;11.30;10.90;;;5.20;99.90;;;;;;5047792;28;20816;-66
2022/11/05 07:18:10;;;;;;;11.13;10.73;;;5.20;99.90;;;;;;5046772;28;20517;-68
2022/11/05 07:20:38;;;;;;;9.67;9.37;;;5.30;99.90;;;;;;5044100;28;20487;-66
2022/11/05 07:23:06;;;;;;;10.60;10.20;;;5.40;99.90;;;;;;5043802;28;20831;-67
2022/11/05 07:25:34;;;;;;;10.50;10.10;;;5.40;99.90;;;;;;5047998;28;20898;-66
2022/11/05 07:28:03;;;;;;;10.37;9.97;;;5.50;99.90;;;;;;5045063;28;20488;-66
2022/11/05 07:30:30;;;;;;;11.60;11.20;;;5.50;99.90;;;;;;5045288;28;20472;-68
2022/11/05 07:32:57;;;;;;;10.70;10.30;;;5.60;99.90;;;;;;5046041;28;20964;-66
2022/11/05 07:35:24;;;;;;;10.50;10.10;;;5.70;99.90;;;;;;5044200;28;20464;-68
2022/11/05 07:37:53;;;;;;;11.10;10.70;;;5.70;99.90;;;;;;5037027;28;20463;-68
2022/11/05 07:40:21;;;;;;;10.23;9.83;;;5.80;99.90;;;;;;5040893;28;20487;-66
2022/11/05 07:42:51;;;;;;;9.60;9.30;;;5.80;99.90;;;;;;5040551;28;20459;-68
2022/11/05 07:45:19;;;;;;;11.47;10.97;;;5.80;99.90;;;;;;5043597;28;20474;-68
2022/11/05 07:47:47;;;;;;;9.70;9.40;;;5.90;99.90;;;;;;5041630;28;20462;-68
2022/11/05 07:50:14;;;;;;;10.60;10.20;;;5.90;99.90;;;;;;5044533;28;20489;-68
2022/11/05 07:52:41;;;;;;;10.30;9.90;;;6.00;99.90;;;;;;5046202;28;20490;-66
2022/11/05 07:55:09;;;;;;;10.30;9.90;;;6.00;99.90;;;;;;5033968;28;20464;-69
2022/11/05 07:57:41;;;;;;;10.37;9.97;;;6.10;99.90;;;;;;5046857;28;20821;-69
2022/11/05 08:00:12;;;;;;;10.23;9.83;;;6.10;99.90;;;;;;5046081;28;20485;-68
2022/11/05 08:02:39;;;;;;;10.40;10.00;;;6.10;99.90;;;;;;5045331;28;20465;-69
2022/11/05 08:05:07;;;;;;;9.80;9.50;;;6.20;99.90;;;;;;5045260;28;20456;-68
2022/11/05 08:07:34;;;;;;;9.27;8.97;;;6.20;99.90;;;;;;5047045;28;21033;-67
2022/11/05 08:10:02;;;;;;;9.30;9.00;;;6.30;99.90;;;;;;5042893;28;20500;-68
2022/11/05 08:12:30;;;;;;;9.30;9.00;;;6.40;99.90;;;;;;5045181;28;20955;-66
2022/11/05 08:14:56;;;;;;;9.67;9.37;;;6.40;99.90;;;;;;5046127;28;20563;-69
2022/11/05 08:17:25;;;;;;;9.37;9.07;;;6.50;99.90;;;;;;5046014;28;20868;-67
2022/11/05 08:19:51;;;;;;;9.10;8.80;;;6.60;99.90;;;;;;5041336;28;20861;-66
2022/11/05 08:22:18;;;;;;;9.67;9.37;;;6.60;99.90;;;;;;5044076;28;20864;-69
2022/11/05 08:24:45;;;;;;;9.00;8.70;;;6.70;99.90;;;;;;5044110;28;20563;-67
2022/11/05 08:27:12;;;;;;;9.50;9.20;;;6.70;99.90;;;;;;5042729;28;20950;-68
2022/11/05 08:29:39;;;;;;;9.67;9.37;;;6.80;99.90;;;;;;5045941;28;20479;-66
2022/11/05 08:32:05;;;;;;;9.43;9.13;;;6.90;99.90;;;;;;5041450;28;20814;-67
2022/11/05 08:34:33;;;;;;;9.60;9.30;;;7.00;99.90;;;;;;5043294;28;20485;-67
2022/11/05 08:37:01;;;;;;;10.30;9.90;;;7.10;99.90;;;;;;5044910;28;20480;-69
2022/11/05 08:39:28;;;;;;;9.63;9.33;;;7.10;99.90;;;;;;5044392;28;20520;-67
2022/11/05 08:41:55;;;;;;;10.40;10.00;;;7.10;99.90;;;;;;5042954;28;20470;-69
2022/11/05 08:44:22;;;;;;;9.63;9.33;;;7.20;99.90;;;;;;5041536;28;20463;-67
2022/11/05 08:46:49;;;;;;;9.40;9.10;;;7.30;99.90;;;;;;5041844;28;20919;-67
2022/11/05 08:49:17;;;;;;;8.70;8.40;;;7.40;99.90;;;;;;5043490;28;20859;-68
2022/11/05 08:51:45;;;;;;;8.43;8.13;;;7.50;99.90;;;;;;5040381;28;20471;-67
2022/11/05 08:54:12;;;;;;;9.07;8.77;;;7.50;99.90;;;;;;5045867;28;20486;-67
2022/11/05 08:56:39;;;;;;;9.00;8.70;;;7.50;99.90;;;;;;5045020;28;21048;-68
2022/11/05 08:59:07;;;;;;;9.03;8.73;;;7.70;99.90;;;;;;5041188;28;20467;-66
2022/11/05 09:01:34;;;;;;;8.70;8.40;;;7.70;99.90;;;;;;5043580;28;20500;-68
2022/11/05 09:04:01;;;;;;;8.83;8.53;;;7.70;99.90;;;;;;5043508;28;20561;-67
2022/11/05 09:06:29;;;;;;;9.37;9.07;;;7.80;99.90;;;;;;5042335;28;20471;-68
2022/11/05 09:08:58;;;;;;;9.70;9.40;;;7.80;99.90;;;;;;5041002;28;20490;-69
2022/11/05 09:11:25;;;;;;;10.27;9.87;;;7.90;99.90;;;;;;5037215;28;20466;-66
2022/11/05 09:13:52;;;;;;;9.50;9.20;;;8.00;99.90;;;;;;5041258;28;20903;-68
2022/11/05 09:16:22;;;;;;;9.67;9.37;;;8.00;99.90;;;;;;5043584;28;20467;-68
2022/11/05 09:18:49;;;;;;;10.40;10.00;;;8.10;99.90;;;;;;5047464;28;20462;-67
2022/11/05 09:21:16;;;;;;;10.10;9.77;;;8.20;99.90;;;;;;5044565;28;20531;-67
2022/11/05 09:23:43;;;;;;;9.50;9.20;;;8.30;99.90;;;;;;5043608;28;20555;-67
2022/11/05 09:26:13;;;;;;;10.53;10.13;;;8.30;99.90;;;;;;5045254;28;20470;-67
2022/11/05 09:28:40;;;;;;;10.03;9.63;;;8.40;99.90;;;;;;5045088;28;20519;-66
2022/11/05 09:31:08;;;;;;;9.90;9.60;;;8.50;99.90;;;;;;5043402;28;20467;-67
2022/11/05 09:33:36;;;;;;;9.40;9.10;;;8.60;99.90;;;;;;5045367;28;20530;-67
2022/11/05 09:36:04;;;;;;;9.00;8.70;;;8.60;99.90;;;;;;5035847;28;20489;-69
2022/11/05 09:38:33;;;;;;;9.60;9.30;;;8.70;99.90;;;;;;5038739;28;20463;-69
2022/11/05 09:41:02;;;;;;;9.50;9.20;;;8.70;99.90;;;;;;5042707;28;20495;-67
2022/11/05 09:43:35;;;;;;;8.70;8.40;;;8.80;99.90;;;;;;5043475;28;20466;-67
2022/11/05 09:46:08;;;;;;;8.80;8.50;;;8.90;99.90;;;;;;5043845;28;20459;-68
2022/11/05 09:48:37;;;;;;;8.77;8.47;;;9.00;99.90;;;;;;5044325;28;20789;-67
2022/11/05 09:51:05;;;;;;;8.40;8.10;;;9.00;99.90;;;;;;5044221;28;20819;-67
2022/11/05 09:53:35;;;;;;;8.30;8.00;;;9.10;99.90;;;;;;5039648;28;20587;-68
2022/11/05 09:56:02;;;;;;;8.20;7.90;;;9.20;99.90;;;;;;5042434;28;20473;-67
2022/11/05 09:58:39;;;;;;;7.87;7.57;;;9.30;99.90;;;;;;5039193;28;21223;-67
2022/11/05 10:01:11;;;;;;;7.27;7.07;;;9.40;99.90;;;;;;5045143;28;20500;-69
2022/11/05 10:03:45;;;;;;;19.33;17.10;;;9.40;99.90;;;;;;5044987;28;21028;-67
2022/11/05 10:06:19;;;;;;;18.23;16.00;;;9.50;99.90;;;;;;5039321;28;20547;-68
2022/11/05 10:08:49;;;;;;;26.13;16.43;;;9.60;99.90;;;;;;5040701;28;20483;-69
2022/11/05 10:11:20;;;;;;;19.90;15.43;;;9.70;99.90;;;;;;5040553;28;20810;-67
2022/11/05 10:13:51;;;;;;;17.97;15.90;;;9.90;99.90;;;;;;5042803;28;20970;-69
2022/11/05 10:16:23;;;;;;;18.10;16.30;;;10.00;99.90;;;;;;5042094;28;20463;-69
2022/11/05 10:18:55;;;;;;;23.70;15.90;;;10.10;99.90;;;;;;5042721;28;20464;-67
2022/11/05 10:21:22;;;;;;;20.43;16.83;;;10.20;99.90;;;;;;5044002;28;20498;-69
2022/11/05 10:23:48;;;;;;;19.23;15.50;;;10.30;99.90;;;;;;5044196;28;20498;-67
2022/11/05 10:26:19;;;;;;;15.77;14.07;;;10.50;99.90;;;;;;5043315;28;21035;-68
2022/11/05 10:28:46;;;;;;;16.90;15.30;;;10.70;99.90;;;;;;5040884;28;21139;-67
2022/11/05 10:31:19;;;;;;;18.00;15.40;;;11.10;99.90;;;;;;5040486;28;20540;-67
2022/11/05 10:33:50;;;;;;;18.03;16.17;;;11.60;99.90;;;;;;5038430;28;20580;-69
2022/11/05 10:36:21;;;;;;;17.77;16.17;;;12.10;99.90;;;;;;5037497;28;20650;-68
2022/11/05 10:38:50;;;;;;;18.30;16.60;;;12.50;99.90;;;;;;5039196;28;20492;-67
2022/11/05 10:41:37;;;;;;;17.53;15.93;;;12.70;99.90;;;;;;5039059;28;20524;-69
2022/11/05 10:44:18;;;;;;;17.97;16.33;;;13.20;99.90;;;;;;5039978;28;20824;-68
2022/11/05 10:46:56;;;;;;;17.73;16.07;;;13.80;99.90;;;;;;5043891;28;20732;-69
2022/11/05 10:49:37;;;;;;;19.17;16.37;;;13.80;99.90;;;;;;5048215;28;20831;-67
2022/11/05 10:52:22;;;;;;;17.17;15.37;;;13.70;99.90;;;;;;5045385;28;20463;-67
2022/11/05 10:54:51;;;;;;;16.77;15.47;;;13.40;99.90;;;;;;5048221;28;20464;-67
2022/11/05 10:57:28;;;;;;;17.77;16.37;;;13.50;99.90;;;;;;5046021;28;20483;-68
2022/11/05 11:00:21;;;;;;;17.03;15.33;;;13.80;99.90;;;;;;5044746;28;20462;-69
2022/11/05 11:02:51;;;;;;;16.67;15.40;;;13.60;99.90;;;;;;5047984;28;20920;-68
2022/11/05 11:05:21;;;;;;;16.83;15.43;;;14.10;99.90;;;;;;5047292;28;20464;-68
2022/11/05 11:07:58;;;;;;;17.20;15.70;;;14.30;99.90;;;;;;5048292;28;20460;-69
2022/11/05 11:10:25;;;;;;;18.60;16.80;;;14.20;99.90;;;;;;5042512;28;20463;-69
2022/11/05 11:12:53;;;;;;;18.60;17.10;;;13.90;99.90;;;;;;5046215;28;20830;-68
2022/11/05 11:15:27;;;;;;;17.83;16.53;;;13.40;99.90;;;;;;5051192;28;20783;-69
2022/11/05 11:17:57;;;;;;;19.47;17.87;;;13.10;99.90;;;;;;5044289;28;20469;-69
2022/11/05 11:20:27;;;;;;;17.40;16.00;;;13.30;99.90;;;;;;5044697;28;20924;-68
2022/11/05 11:23:10;;;;;;;18.00;16.40;;;13.30;99.90;;;;;;5041456;28;20498;-69
2022/11/05 11:25:46;;;;;;;16.03;14.93;;;13.20;99.90;;;;;;5040031;28;20472;-69
2022/11/05 11:28:19;;;;;;;17.47;15.87;;;12.70;99.90;;;;;;5044251;28;21187;-69
2022/11/05 11:30:50;;;;;;;17.03;15.70;;;12.70;99.90;;;;;;5046848;28;20571;-69
2022/11/05 11:33:22;;;;;;;17.47;15.70;;;12.70;99.90;;;;;;5045691;28;20491;-69
2022/11/05 11:35:49;;;;;;;16.63;15.63;;;12.70;99.90;;;;;;5039991;28;20588;-70
2022/11/05 11:38:17;;;;;;;15.93;14.53;;;12.70;99.90;;;;;;5042212;28;20471;-69
2022/11/05 11:40:44;;;;;;;17.00;15.40;;;12.70;99.90;;;;;;5044282;28;20879;-69
2022/11/05 11:43:23;;;;;;;17.97;16.40;;;12.60;99.90;;;;;;5045011;28;20711;-68
2022/11/05 11:45:53;;;;;;;15.90;14.87;;;12.50;99.90;;;;;;5041601;28;20470;-69
2022/11/05 11:48:24;;;;;;;16.67;15.57;;;12.40;99.90;;;;;;5044135;28;20464;-69
2022/11/05 11:50:52;;;;;;;16.50;15.40;;;12.40;99.90;;;;;;5044998;28;20797;-69
2022/11/05 11:53:44;;;;;;;16.77;15.67;;;12.50;99.90;;;;;;5045512;28;20548;-69
2022/11/05 11:56:17;;;;;;;16.70;15.30;;;12.70;99.90;;;;;;5044524;28;20456;-70
2022/11/05 11:58:46;;;;;;;17.10;15.57;;;12.60;99.90;;;;;;5046060;28;20521;-69
2022/11/05 12:01:37;;;;;;;17.67;16.17;;;12.60;99.90;;;;;;5044901;28;21028;-71
2022/11/05 12:04:17;;;;;;;16.87;15.63;;;12.60;99.90;;;;;;5045377;28;20509;-70
2022/11/05 12:06:50;;;;;;;17.67;15.77;;;12.50;99.90;;;;;;5044822;28;20486;-70
2022/11/05 12:09:23;;;;;;;17.67;16.30;;;12.60;99.90;;;;;;5038765;28;20460;-70
2022/11/05 12:11:58;;;;;;;17.20;15.83;;;12.70;99.90;;;;;;5037169;28;20499;-70
2022/11/05 12:14:35;;;;;;;18.93;16.10;;;12.80;99.90;;;;;;5045739;28;20460;-71
2022/11/05 12:17:12;;;;;;;15.83;14.83;;;12.80;99.90;;;;;;5041111;28;20886;-70
2022/11/05 12:20:00;;;;;;;15.73;14.43;;;12.80;99.90;;;;;;5043993;28;20460;-70
2022/11/05 12:22:40;;;;;;;17.07;15.60;;;12.90;99.90;;;;;;5041869;28;20548;-69
2022/11/05 12:25:21;;;;;;;17.47;16.07;;;12.80;99.90;;;;;;5037559;28;21015;-69
2022/11/05 12:28:07;;;;;;;16.90;15.40;;;13.10;99.90;;;;;;5038121;28;20553;-69
2022/11/05 12:30:42;;;;;;;17.80;16.30;;;13.30;99.90;;;;;;5040681;28;20942;-70
2022/11/05 12:33:34;;;;;;;16.53;15.40;;;12.90;99.90;;;;;;5044848;28;21013;-71
2022/11/05 12:36:21;;;;;;;22.73;17.43;;;13.20;99.90;;;;;;5045289;28;20463;-69
2022/11/05 12:39:23;;;;;;;17.63;16.20;;;13.20;99.90;;;;;;5042080;28;20475;-69
2022/11/05 12:41:56;;;;;;;17.73;16.13;;;13.20;99.90;;;;;;5045714;28;20487;-71
2022/11/05 12:44:47;;;;;;;16.80;15.47;;;13.10;99.90;;;;;;5034221;28;20463;-70
2022/11/05 12:47:28;;;;;;;17.10;15.67;;;13.10;99.90;;;;;;5037698;28;20468;-69
2022/11/05 12:50:08;;;;;;;18.37;17.17;;;13.10;99.90;;;;;;5036097;28;20491;-68
2022/11/05 12:55:37;;;;;;;17.70;16.20;;;13.70;99.90;;;;;;5127803;27;20340;-70
2022/11/05 12:58:12;;;;;;;15.90;14.70;;;13.60;99.90;;;;;;5110748;28;20456;-70
2022/11/05 13:00:46;;;;;;;17.10;15.67;;;13.50;99.90;;;;;;5116501;28;20835;-70
2022/11/05 13:03:28;;;;;;;15.63;14.73;;;13.20;99.90;;;;;;5107895;28;20528;-69
2022/11/05 13:05:58;;;;;;;15.93;14.93;;;13.30;99.90;;;;;;5108161;28;20473;-71
2022/11/05 13:08:30;;;;;;;17.93;16.60;;;13.40;99.90;;;;;;5113889;28;20464;-69
2022/11/05 13:11:03;;;;;;;16.53;15.20;;;13.50;99.90;;;;;;5106699;28;20468;-69
2022/11/05 13:13:33;;;;;;;17.37;15.80;;;13.60;99.90;;;;;;5114518;28;22395;-69
2022/11/05 13:16:04;;;;;;;16.40;15.20;;;13.70;99.90;;;;;;5115243;28;20461;-70
2022/11/05 13:18:43;;;;;;;17.10;15.70;;;13.80;99.90;;;;;;5114738;28;20880;-71
2022/11/05 13:21:11;;;;;;;17.87;16.50;;;13.90;99.90;;;;;;5107149;28;20453;-72
2022/11/05 13:23:42;;;;;;;17.43;16.20;;;13.90;99.90;;;;;;5108788;28;20825;-71
2022/11/05 13:26:15;;;;;;;17.33;16.07;;;14.00;99.90;;;;;;5112373;28;20851;-70
2022/11/05 13:28:48;;;;;;;18.17;16.33;;;14.00;99.90;;;;;;5114644;28;20580;-69
2022/11/05 13:31:20;;;;;;;16.63;15.47;;;13.90;99.90;;;;;;5110494;28;20456;-69
2022/11/05 13:33:50;;;;;;;16.47;15.03;;;14.20;99.90;;;;;;5112405;28;20480;-71
2022/11/05 13:39:15;;;;;;;15.47;14.57;;;13.90;99.90;;;;;;5109737;27;20452;-72
2022/11/05 13:41:57;;;;;;;17.00;15.60;;;14.00;99.90;;;;;;5113442;28;20525;-68